createdAt,value
2017-09-08T00:00:38.160Z,0
2017-09-08T00:01:37.859Z,0
2017-09-08T00:02:37.953Z,0
2017-09-08T00:03:38.473Z,0
2017-09-08T00:04:38.155Z,0
2017-09-08T00:05:37.933Z,0
2017-09-08T00:06:38.454Z,0
2017-09-08T00:07:37.824Z,0
2017-09-08T00:08:38.136Z,0
2017-09-08T00:09:38.124Z,0
2017-09-08T00:10:38.132Z,0
2017-09-08T00:11:37.802Z,0
2017-09-08T00:12:37.798Z,0
2017-09-08T00:13:37.793Z,0
2017-09-08T00:14:38.096Z,0
2017-09-08T00:15:37.785Z,0
2017-09-08T00:16:38.090Z,0
2017-09-08T00:17:37.774Z,0
2017-09-08T00:18:37.453Z,0
2017-09-08T00:19:38.076Z,0
2017-09-08T00:20:37.754Z,0
2017-09-08T00:21:37.538Z,0
2017-09-08T00:22:37.745Z,0
2017-09-08T00:23:38.364Z,0
2017-09-08T00:24:38.049Z,0
2017-09-08T00:25:37.729Z,0
2017-09-08T00:26:37.413Z,0
2017-09-08T00:27:37.407Z,0
2017-09-08T00:28:37.718Z,0
2017-09-08T00:29:37.712Z,0
2017-09-08T00:30:38.327Z,0
2017-09-08T00:31:37.701Z,0
2017-09-08T00:32:38.205Z,0
2017-09-08T00:33:38.321Z,0
2017-09-08T00:34:37.784Z,0
2017-09-08T00:35:37.992Z,0
2017-09-08T00:36:37.671Z,0
2017-09-08T00:37:37.979Z,0
2017-09-08T00:38:38.081Z,0
2017-09-08T00:39:37.342Z,0
2017-09-08T00:40:37.751Z,0
2017-09-08T00:41:37.749Z,0
2017-09-08T00:42:37.324Z,0
2017-09-08T00:43:38.269Z,0
2017-09-08T00:44:37.629Z,0
2017-09-08T00:45:38.247Z,0
2017-09-08T00:46:37.622Z,0
2017-09-08T00:47:37.618Z,0
2017-09-08T00:48:38.335Z,0
2017-09-08T00:49:37.602Z,0
2017-09-08T00:50:38.010Z,0
2017-09-08T00:51:37.910Z,0
2017-09-08T00:52:38.005Z,0
2017-09-08T00:53:37.894Z,0
2017-09-08T00:54:37.576Z,0
2017-09-08T00:55:37.681Z,0
2017-09-08T00:56:37.567Z,0
2017-09-08T00:57:38.293Z,0
2017-09-08T00:58:38.182Z,0
2017-09-08T00:59:37.652Z,0
2017-09-08T01:00:37.853Z,0
2017-09-08T01:01:37.539Z,0
2017-09-08T01:02:37.638Z,0
2017-09-08T01:03:37.528Z,0
2017-09-08T01:04:37.839Z,0
2017-09-08T01:05:37.202Z,0
2017-09-08T01:06:37.512Z,0
2017-09-08T01:07:37.294Z,0
2017-09-08T01:08:37.817Z,0
2017-09-08T01:09:37.499Z,0
2017-09-08T01:10:38.116Z,0
2017-09-08T01:11:37.900Z,0
2017-09-08T01:12:37.793Z,0
2017-09-08T01:13:37.887Z,0
2017-09-08T01:14:37.793Z,0
2017-09-08T01:15:37.775Z,0
2017-09-08T01:16:37.774Z,0
2017-09-08T01:17:37.456Z,0
2017-09-08T01:18:37.448Z,0
2017-09-08T01:19:37.442Z,0
2017-09-08T01:20:37.221Z,0
2017-09-08T01:21:37.854Z,0
2017-09-08T01:22:37.114Z,0
2017-09-08T01:23:38.053Z,0
2017-09-08T01:24:37.725Z,0
2017-09-08T01:25:37.729Z,0
2017-09-08T01:26:38.032Z,0
2017-09-08T01:27:37.087Z,0
2017-09-08T01:28:37.394Z,0
2017-09-08T01:29:37.393Z,0
2017-09-08T01:30:37.070Z,0
2017-09-08T01:31:37.688Z,0
2017-09-08T01:32:37.997Z,0
2017-09-08T01:33:37.366Z,0
2017-09-08T01:34:37.045Z,0
2017-09-08T01:35:37.771Z,0
2017-09-08T01:36:37.662Z,0
2017-09-08T01:37:37.655Z,0
2017-09-08T01:38:37.340Z,0
2017-09-08T01:39:37.334Z,0
2017-09-08T01:40:37.327Z,0
2017-09-08T01:41:37.949Z,0
2017-09-08T01:42:37.005Z,0
2017-09-08T01:43:37.630Z,0
2017-09-08T01:44:36.993Z,0
2017-09-08T01:45:37.721Z,0
2017-09-08T01:46:37.919Z,0
2017-09-08T01:47:38.019Z,0
2017-09-08T01:48:37.913Z,0
2017-09-08T01:49:37.278Z,0
2017-09-08T01:50:37.285Z,0
2017-09-08T01:51:37.274Z,0
2017-09-08T01:52:37.262Z,0
2017-09-08T01:53:37.565Z,0
2017-09-08T01:54:37.563Z,0
2017-09-08T01:55:37.243Z,0
2017-09-08T01:56:38.070Z,0
2017-09-08T01:57:37.868Z,0
2017-09-08T01:58:37.546Z,0
2017-09-08T01:59:37.541Z,0
2017-09-08T02:00:37.731Z,0
2017-09-08T02:01:37.414Z,0
2017-09-08T02:02:37.833Z,0
2017-09-08T02:03:37.830Z,0
2017-09-08T02:04:37.197Z,0
2017-09-08T02:05:37.192Z,0
2017-09-08T02:06:37.288Z,0
2017-09-08T02:07:37.183Z,0
2017-09-08T02:08:37.588Z,0
2017-09-08T02:09:37.488Z,0
2017-09-08T02:10:37.168Z,0
2017-09-08T02:11:37.793Z,0
2017-09-08T02:12:37.354Z,0
2017-09-08T02:13:37.152Z,0
2017-09-08T02:14:37.466Z,0
2017-09-08T02:15:37.763Z,0
2017-09-08T02:16:37.757Z,0
2017-09-08T02:17:37.955Z,0
2017-09-08T02:18:37.748Z,0
2017-09-08T02:19:37.116Z,0
2017-09-08T02:20:37.116Z,0
2017-09-08T02:21:37.106Z,0
2017-09-08T02:22:37.101Z,0
2017-09-08T02:23:37.094Z,0
2017-09-08T02:24:37.394Z,0
2017-09-08T02:25:37.404Z,0
2017-09-08T02:26:37.698Z,0
2017-09-08T02:27:37.169Z,0
2017-09-08T02:28:37.790Z,0
2017-09-08T02:29:37.374Z,0
2017-09-08T02:30:37.366Z,0
2017-09-08T02:31:37.678Z,0
2017-09-08T02:32:37.142Z,0
2017-09-08T02:33:36.722Z,0
2017-09-08T02:34:37.036Z,0
2017-09-08T02:35:37.034Z,0
2017-09-08T02:36:37.331Z,0
2017-09-08T02:37:37.326Z,0
2017-09-08T02:38:37.014Z,0
2017-09-08T02:39:37.636Z,0
2017-09-08T02:40:37.628Z,0
2017-09-08T02:41:37.339Z,0
2017-09-08T02:42:36.985Z,0
2017-09-08T02:43:37.613Z,0
2017-09-08T02:44:37.698Z,0
2017-09-08T02:45:36.969Z,0
2017-09-08T02:46:37.374Z,0
2017-09-08T02:47:37.278Z,0
2017-09-08T02:48:37.580Z,0
2017-09-08T02:49:36.634Z,0
2017-09-08T02:50:37.570Z,0
2017-09-08T02:51:37.568Z,0
2017-09-08T02:52:37.347Z,0
2017-09-08T02:53:36.713Z,0
2017-09-08T02:54:36.920Z,0
2017-09-08T02:55:37.228Z,0
2017-09-08T02:56:37.224Z,0
2017-09-08T02:57:36.905Z,0
2017-09-08T02:58:37.210Z,0
2017-09-08T02:59:36.990Z,0
2017-09-08T03:00:36.886Z,0
2017-09-08T03:01:36.982Z,0
2017-09-08T03:02:36.978Z,0
2017-09-08T03:03:37.498Z,0
2017-09-08T03:04:36.967Z,0
2017-09-08T03:05:37.488Z,0
2017-09-08T03:06:37.167Z,0
2017-09-08T03:07:37.475Z,0
2017-09-08T03:08:37.259Z,0
2017-09-08T03:09:37.157Z,0
2017-09-08T03:10:37.456Z,0
2017-09-08T03:11:37.138Z,0
2017-09-08T03:12:36.608Z,0
2017-09-08T03:13:37.441Z,0
2017-09-08T03:14:36.905Z,0
2017-09-08T03:15:37.118Z,0
2017-09-08T03:16:37.419Z,0
2017-09-08T03:17:36.479Z,0
2017-09-08T03:18:36.824Z,0
2017-09-08T03:19:37.408Z,0
2017-09-08T03:20:37.084Z,0
2017-09-08T03:21:36.767Z,0
2017-09-08T03:22:37.493Z,0
2017-09-08T03:23:36.443Z,0
2017-09-08T03:24:37.480Z,0
2017-09-08T03:25:36.750Z,0
2017-09-08T03:26:36.740Z,0
2017-09-08T03:27:37.462Z,0
2017-09-08T03:28:37.358Z,0
2017-09-08T03:29:37.036Z,0
2017-09-08T03:30:37.457Z,0
2017-09-08T03:31:37.341Z,0
2017-09-08T03:32:36.705Z,0
2017-09-08T03:33:36.702Z,0
2017-09-08T03:34:37.324Z,0
2017-09-08T03:35:36.379Z,0
2017-09-08T03:36:36.785Z,0
2017-09-08T03:37:36.678Z,0
2017-09-08T03:38:37.301Z,0
2017-09-08T03:39:36.985Z,0
2017-09-08T03:40:37.410Z,0
2017-09-08T03:41:36.345Z,0
2017-09-08T03:42:36.652Z,0
2017-09-08T03:43:36.961Z,0
2017-09-08T03:44:37.265Z,0
2017-09-08T03:45:36.948Z,0
2017-09-08T03:46:36.937Z,0
2017-09-08T03:47:37.034Z,0
2017-09-08T03:48:36.932Z,0
2017-09-08T03:49:36.614Z,0
2017-09-08T03:50:37.330Z,0
2017-09-08T03:51:36.599Z,0
2017-09-08T03:52:37.010Z,0
2017-09-08T03:53:36.594Z,0
2017-09-08T03:54:36.896Z,0
2017-09-08T03:55:36.887Z,0
2017-09-08T03:56:36.996Z,0
2017-09-08T03:57:36.250Z,0
2017-09-08T03:58:37.285Z,0
2017-09-08T03:59:36.242Z,0
2017-09-08T04:00:36.862Z,0
2017-09-08T04:01:36.859Z,0
2017-09-08T04:02:36.846Z,0
2017-09-08T04:03:37.157Z,0
2017-09-08T04:04:36.841Z,0
2017-09-08T04:05:36.831Z,0
2017-09-08T04:06:36.298Z,0
2017-09-08T04:07:36.822Z,0
2017-09-08T04:08:36.919Z,0
2017-09-08T04:09:36.187Z,0
2017-09-08T04:10:36.806Z,0
2017-09-08T04:11:36.909Z,0
2017-09-08T04:12:36.477Z,0
2017-09-08T04:13:36.574Z,0
2017-09-08T04:14:36.780Z,0
2017-09-08T04:15:36.463Z,0
2017-09-08T04:16:37.085Z,0
2017-09-08T04:17:36.865Z,0
2017-09-08T04:18:36.546Z,0
2017-09-08T04:19:36.861Z,0
2017-09-08T04:20:37.058Z,0
2017-09-08T04:21:36.744Z,0
2017-09-08T04:22:37.048Z,0
2017-09-08T04:23:36.731Z,0
2017-09-08T04:24:37.042Z,0
2017-09-08T04:25:36.408Z,0
2017-09-08T04:26:36.091Z,0
2017-09-08T04:27:36.395Z,0
2017-09-08T04:28:36.808Z,0
2017-09-08T04:29:36.382Z,0
2017-09-08T04:30:36.377Z,0
2017-09-08T04:31:36.682Z,0
2017-09-08T04:32:36.680Z,0
2017-09-08T04:33:37.126Z,0
2017-09-08T04:34:36.356Z,0
2017-09-08T04:35:36.670Z,0
2017-09-08T04:36:36.658Z,0
2017-09-08T04:37:36.337Z,4
2017-09-08T04:38:36.960Z,4
2017-09-08T04:39:37.049Z,0
2017-09-08T04:40:36.323Z,0
2017-09-08T04:41:36.942Z,4
2017-09-08T04:42:36.722Z,4
2017-09-08T04:43:36.304Z,4
2017-09-08T04:44:36.294Z,4
2017-09-08T04:45:36.291Z,4
2017-09-08T04:46:36.287Z,4
2017-09-08T04:47:36.593Z,8
2017-09-08T04:48:36.277Z,8
2017-09-08T04:49:36.583Z,8
2017-09-08T04:50:36.269Z,12
2017-09-08T04:51:36.885Z,12
2017-09-08T04:52:36.249Z,8
2017-09-08T04:53:36.381Z,12
2017-09-08T04:54:36.555Z,12
2017-09-08T04:55:35.918Z,12
2017-09-08T04:56:36.669Z,16
2017-09-08T04:57:35.909Z,20
2017-09-08T04:58:36.849Z,16
2017-09-08T04:59:36.944Z,24
2017-09-08T05:00:36.209Z,24
2017-09-08T05:01:36.201Z,24
2017-09-08T05:02:36.509Z,24
2017-09-08T05:03:36.509Z,32
2017-09-08T05:04:36.696Z,32
2017-09-08T05:05:36.179Z,36
2017-09-08T05:06:36.480Z,36
2017-09-08T05:07:36.268Z,40
2017-09-08T05:08:35.842Z,44
2017-09-08T05:09:36.573Z,48
2017-09-08T05:10:36.148Z,48
2017-09-08T05:11:36.459Z,48
2017-09-08T05:12:36.136Z,52
2017-09-08T05:13:36.129Z,56
2017-09-08T05:14:36.537Z,56
2017-09-08T05:15:36.746Z,60
2017-09-08T05:16:36.744Z,64
2017-09-08T05:17:35.796Z,64
2017-09-08T05:18:36.729Z,68
2017-09-08T05:19:36.098Z,72
2017-09-08T05:20:36.503Z,76
2017-09-08T05:21:36.118Z,76
2017-09-08T05:22:36.708Z,80
2017-09-08T05:23:36.384Z,84
2017-09-08T05:24:35.854Z,88
2017-09-08T05:25:36.374Z,92
2017-09-08T05:26:35.744Z,96
2017-09-08T05:27:36.054Z,96
2017-09-08T05:28:36.359Z,100
2017-09-08T05:29:36.143Z,100
2017-09-08T05:30:36.031Z,104
2017-09-08T05:31:36.347Z,108
2017-09-08T05:32:36.118Z,116
2017-09-08T05:33:36.430Z,120
2017-09-08T05:34:36.111Z,128
2017-09-08T05:35:36.006Z,132
2017-09-08T05:36:36.316Z,128
2017-09-08T05:37:35.993Z,124
2017-09-08T05:38:35.672Z,124
2017-09-08T05:39:36.395Z,128
2017-09-08T05:40:36.183Z,128
2017-09-08T05:41:36.282Z,128
2017-09-08T05:42:36.691Z,128
2017-09-08T05:43:36.274Z,132
2017-09-08T05:44:36.297Z,136
2017-09-08T05:45:36.270Z,136
2017-09-08T05:46:36.352Z,136
2017-09-08T05:47:36.250Z,140
2017-09-08T05:48:36.240Z,140
2017-09-08T05:49:36.549Z,144
2017-09-08T05:50:36.649Z,148
2017-09-08T05:51:36.328Z,148
2017-09-08T05:52:36.323Z,152
2017-09-08T05:53:36.525Z,156
2017-09-08T05:54:36.218Z,160
2017-09-08T05:55:36.311Z,164
2017-09-08T05:56:35.988Z,172
2017-09-08T05:57:35.880Z,172
2017-09-08T05:58:36.199Z,176
2017-09-08T05:59:36.490Z,180
2017-09-08T06:00:35.857Z,180
2017-09-08T06:01:36.269Z,180
2017-09-08T06:02:36.165Z,184
2017-09-08T06:03:36.256Z,180
2017-09-08T06:04:36.149Z,184
2017-09-08T06:05:36.145Z,188
2017-09-08T06:06:35.825Z,192
2017-09-08T06:07:36.449Z,200
2017-09-08T06:08:36.230Z,204
2017-09-08T06:09:35.809Z,212
2017-09-08T06:10:35.802Z,216
2017-09-08T06:11:35.803Z,220
2017-09-08T06:12:35.479Z,220
2017-09-08T06:13:35.790Z,216
2017-09-08T06:14:36.194Z,220
2017-09-08T06:15:35.560Z,220
2017-09-08T06:16:36.113Z,224
2017-09-08T06:17:35.761Z,232
2017-09-08T06:18:36.172Z,240
2017-09-08T06:19:36.066Z,244
2017-09-08T06:20:35.743Z,256
2017-09-08T06:21:35.738Z,256
2017-09-08T06:22:35.734Z,260
2017-09-08T06:23:36.044Z,268
2017-09-08T06:24:36.043Z,268
2017-09-08T06:25:35.717Z,268
2017-09-08T06:26:36.025Z,276
2017-09-08T06:27:36.018Z,276
2017-09-08T06:28:36.009Z,276
2017-09-08T06:29:35.695Z,280
2017-09-08T06:30:36.102Z,284
2017-09-08T06:31:35.681Z,284
2017-09-08T06:32:35.882Z,292
2017-09-08T06:33:35.985Z,296
2017-09-08T06:34:35.762Z,300
2017-09-08T06:35:36.072Z,300
2017-09-08T06:36:35.696Z,304
2017-09-08T06:37:35.959Z,304
2017-09-08T06:38:36.268Z,312
2017-09-08T06:39:36.259Z,320
2017-09-08T06:40:36.257Z,328
2017-09-08T06:41:36.040Z,340
2017-09-08T06:42:35.304Z,348
2017-09-08T06:43:36.242Z,348
2017-09-08T06:44:36.332Z,356
2017-09-08T06:45:36.022Z,356
2017-09-08T06:46:35.908Z,348
2017-09-08T06:47:36.225Z,336
2017-09-08T06:48:35.997Z,328
2017-09-08T06:49:35.364Z,340
2017-09-08T06:50:35.897Z,340
2017-09-08T06:51:36.292Z,344
2017-09-08T06:52:36.193Z,364
2017-09-08T06:53:35.241Z,372
2017-09-08T06:54:36.180Z,384
2017-09-08T06:55:35.860Z,384
2017-09-08T06:56:35.541Z,384
2017-09-08T06:57:36.064Z,388
2017-09-08T06:58:35.947Z,404
2017-09-08T06:59:35.842Z,432
2017-09-08T07:00:35.931Z,432
2017-09-08T07:01:36.141Z,436
2017-09-08T07:02:35.818Z,440
2017-09-08T07:03:35.910Z,456
2017-09-08T07:04:35.815Z,472
2017-09-08T07:05:35.584Z,472
2017-09-08T07:06:35.165Z,476
2017-09-08T07:07:36.108Z,476
2017-09-08T07:08:35.891Z,488
2017-09-08T07:09:35.779Z,492
2017-09-08T07:10:35.771Z,492
2017-09-08T07:11:35.765Z,500
2017-09-08T07:12:36.072Z,508
2017-09-08T07:13:35.228Z,524
2017-09-08T07:14:35.437Z,552
2017-09-08T07:15:35.429Z,572
2017-09-08T07:16:35.736Z,572
2017-09-08T07:17:36.146Z,580
2017-09-08T07:18:36.138Z,588
2017-09-08T07:19:35.506Z,608
2017-09-08T07:20:35.821Z,620
2017-09-08T07:21:36.023Z,624
2017-09-08T07:22:35.386Z,632
2017-09-08T07:23:35.798Z,648
2017-09-08T07:24:36.007Z,660
2017-09-08T07:25:35.472Z,672
2017-09-08T07:26:35.365Z,684
2017-09-08T07:27:36.086Z,688
2017-09-08T07:28:35.983Z,692
2017-09-08T07:29:35.668Z,688
2017-09-08T07:30:35.344Z,692
2017-09-08T07:31:36.068Z,692
2017-09-08T07:32:35.644Z,696
2017-09-08T07:33:36.051Z,712
2017-09-08T07:34:35.633Z,720
2017-09-08T07:35:35.633Z,728
2017-09-08T07:36:35.832Z,724
2017-09-08T07:37:35.618Z,724
2017-09-08T07:38:35.925Z,728
2017-09-08T07:39:35.706Z,716
2017-09-08T07:40:35.912Z,704
2017-09-08T07:41:35.283Z,712
2017-09-08T07:42:35.276Z,720
2017-09-08T07:43:35.270Z,720
2017-09-08T07:44:35.576Z,704
2017-09-08T07:45:35.261Z,708
2017-09-08T07:46:35.254Z,716
2017-09-08T07:47:34.935Z,724
2017-09-08T07:48:35.557Z,728
2017-09-08T07:49:35.435Z,740
2017-09-08T07:50:35.861Z,752
2017-09-08T07:51:35.535Z,764
2017-09-08T07:52:35.539Z,768
2017-09-08T07:53:35.524Z,772
2017-09-08T07:54:35.207Z,772
2017-09-08T07:55:35.204Z,768
2017-09-08T07:56:35.821Z,768
2017-09-08T07:57:35.290Z,776
2017-09-08T07:58:35.187Z,784
2017-09-08T07:59:35.188Z,788
2017-09-08T08:00:35.588Z,792
2017-09-08T08:01:35.170Z,788
2017-09-08T08:02:35.477Z,808
2017-09-08T08:03:35.791Z,816
2017-09-08T08:04:34.840Z,804
2017-09-08T08:05:35.248Z,792
2017-09-08T08:06:35.452Z,808
2017-09-08T08:07:35.450Z,856
2017-09-08T08:08:35.130Z,864
2017-09-08T08:09:35.440Z,944
2017-09-08T08:10:35.120Z,932
2017-09-08T08:11:34.800Z,948
2017-09-08T08:12:35.112Z,960
2017-09-08T08:13:35.828Z,928
2017-09-08T08:14:35.510Z,904
2017-09-08T08:15:35.401Z,892
2017-09-08T08:16:35.399Z,904
2017-09-08T08:17:35.393Z,984
2017-09-08T08:18:35.385Z,988
2017-09-08T08:19:35.380Z,968
2017-09-08T08:20:35.373Z,1024
2017-09-08T08:21:35.374Z,1048
2017-09-08T08:22:35.365Z,980
2017-09-08T08:23:35.365Z,924
2017-09-08T08:24:35.671Z,904
2017-09-08T08:25:35.769Z,976
2017-09-08T08:26:35.040Z,952
2017-09-08T08:27:35.025Z,940
2017-09-08T08:28:35.337Z,944
2017-09-08T08:29:35.328Z,952
2017-09-08T08:30:35.863Z,904
2017-09-08T08:31:35.431Z,924
2017-09-08T08:32:35.094Z,928
2017-09-08T08:33:34.991Z,936
2017-09-08T08:34:34.988Z,896
2017-09-08T08:35:35.298Z,852
2017-09-08T08:36:35.389Z,880
2017-09-08T08:37:35.078Z,952
2017-09-08T08:38:34.967Z,960
2017-09-08T08:39:35.378Z,980
2017-09-08T08:40:35.619Z,944
2017-09-08T08:41:35.678Z,928
2017-09-08T08:42:34.946Z,924
2017-09-08T08:43:35.348Z,960
2017-09-08T08:44:34.618Z,1036
2017-09-08T08:45:35.564Z,1076
2017-09-08T08:46:35.231Z,1060
2017-09-08T08:47:35.230Z,1032
2017-09-08T08:48:35.535Z,1040
2017-09-08T08:49:34.903Z,1040
2017-09-08T08:50:35.210Z,1076
2017-09-08T08:51:35.209Z,1072
2017-09-08T08:52:34.575Z,1096
2017-09-08T08:53:35.295Z,1048
2017-09-08T08:54:34.876Z,1044
2017-09-08T08:55:35.188Z,984
2017-09-08T08:56:35.179Z,912
2017-09-08T08:57:35.280Z,908
2017-09-08T08:58:34.856Z,944
2017-09-08T08:59:34.852Z,1044
2017-09-08T09:00:35.156Z,1120
2017-09-08T09:01:34.840Z,1104
2017-09-08T09:02:34.938Z,1092
2017-09-08T09:03:35.143Z,1080
2017-09-08T09:04:35.141Z,1036
2017-09-08T09:05:34.817Z,1016
2017-09-08T09:06:34.498Z,964
2017-09-08T09:07:34.938Z,1008
2017-09-08T09:08:35.112Z,988
2017-09-08T09:09:35.207Z,960
2017-09-08T09:10:34.791Z,920
2017-09-08T09:11:35.413Z,924
2017-09-08T09:12:34.881Z,928
2017-09-08T09:13:34.778Z,964
2017-09-08T09:14:35.181Z,888
2017-09-08T09:15:34.553Z,892
2017-09-08T09:16:35.395Z,924
2017-09-08T09:17:35.068Z,824
2017-09-08T09:18:34.750Z,760
2017-09-08T09:19:34.745Z,760
2017-09-08T09:20:34.737Z,772
2017-09-08T09:21:34.735Z,760
2017-09-08T09:22:34.731Z,784
2017-09-08T09:23:34.725Z,780
2017-09-08T09:24:34.715Z,792
2017-09-08T09:25:35.131Z,796
2017-09-08T09:26:34.803Z,784
2017-09-08T09:27:35.017Z,736
2017-09-08T09:28:34.383Z,780
2017-09-08T09:29:35.018Z,788
2017-09-08T09:30:34.783Z,792
2017-09-08T09:31:34.995Z,800
2017-09-08T09:32:35.098Z,792
2017-09-08T09:33:35.300Z,816
2017-09-08T09:34:34.665Z,788
2017-09-08T09:35:34.343Z,800
2017-09-08T09:36:34.963Z,816
2017-09-08T09:37:34.958Z,840
2017-09-08T09:38:34.952Z,840
2017-09-08T09:39:34.747Z,888
2017-09-08T09:40:35.050Z,1056
2017-09-08T09:41:34.312Z,1056
2017-09-08T09:42:34.618Z,980
2017-09-08T09:43:34.616Z,864
2017-09-08T09:44:35.335Z,880
2017-09-08T09:45:34.916Z,824
2017-09-08T09:46:35.229Z,756
2017-09-08T09:47:34.283Z,828
2017-09-08T09:48:34.589Z,816
2017-09-08T09:49:35.210Z,788
2017-09-08T09:50:35.187Z,844
2017-09-08T09:51:34.991Z,860
2017-09-08T09:52:35.198Z,940
2017-09-08T09:53:34.874Z,940
2017-09-08T09:54:34.551Z,908
2017-09-08T09:55:34.651Z,968
2017-09-08T09:56:34.862Z,964
2017-09-08T09:57:34.647Z,968
2017-09-08T09:58:34.855Z,912
2017-09-08T09:59:34.844Z,984
2017-09-08T10:00:34.529Z,868
2017-09-08T10:01:35.032Z,864
2017-09-08T10:02:34.828Z,884
2017-09-08T10:03:34.831Z,920
2017-09-08T10:04:34.195Z,1068
2017-09-08T10:05:34.820Z,1044
2017-09-08T10:06:34.277Z,928
2017-09-08T10:07:34.174Z,908
2017-09-08T10:08:34.791Z,936
2017-09-08T10:09:34.578Z,936
2017-09-08T10:10:34.157Z,912
2017-09-08T10:11:34.467Z,984
2017-09-08T10:12:34.562Z,980
2017-09-08T10:13:35.086Z,976
2017-09-08T10:14:34.136Z,1052
2017-09-08T10:15:34.443Z,1064
2017-09-08T10:16:34.754Z,1052
2017-09-08T10:17:34.745Z,1032
2017-09-08T10:18:34.800Z,964
2017-09-08T10:19:34.422Z,1056
2017-09-08T10:20:34.414Z,1100
2017-09-08T10:21:34.414Z,968
2017-09-08T10:22:34.725Z,1060
2017-09-08T10:23:35.037Z,992
2017-09-08T10:24:35.031Z,1088
2017-09-08T10:25:34.393Z,1020
2017-09-08T10:26:34.383Z,1000
2017-09-08T10:27:34.793Z,964
2017-09-08T10:28:34.373Z,984
2017-09-08T10:29:34.469Z,1000
2017-09-08T10:30:34.682Z,1004
2017-09-08T10:31:34.676Z,1000
2017-09-08T10:32:34.766Z,1016
2017-09-08T10:33:34.033Z,1032
2017-09-08T10:34:34.664Z,948
2017-09-08T10:35:34.653Z,972
2017-09-08T10:36:34.961Z,988
2017-09-08T10:37:34.957Z,1116
2017-09-08T10:38:34.007Z,1120
2017-09-08T10:39:34.000Z,1132
2017-09-08T10:40:34.311Z,1172
2017-09-08T10:41:33.995Z,1140
2017-09-08T10:42:34.301Z,1172
2017-09-08T10:43:34.926Z,1176
2017-09-08T10:44:33.984Z,1184
2017-09-08T10:45:34.599Z,1180
2017-09-08T10:46:34.595Z,1184
2017-09-08T10:47:34.273Z,1152
2017-09-08T10:48:34.586Z,1172
2017-09-08T10:49:34.573Z,1080
2017-09-08T10:50:34.261Z,1116
2017-09-08T10:51:34.563Z,1156
2017-09-08T10:52:34.565Z,1144
2017-09-08T10:53:34.653Z,1104
2017-09-08T10:54:34.547Z,1192
2017-09-08T10:55:34.544Z,1244
2017-09-08T10:56:34.327Z,1244
2017-09-08T10:57:34.642Z,1236
2017-09-08T10:58:34.534Z,1264
2017-09-08T10:59:34.209Z,1364
2017-09-08T11:00:34.306Z,1316
2017-09-08T11:01:34.301Z,1340
2017-09-08T11:02:34.193Z,1356
2017-09-08T11:03:34.608Z,1384
2017-09-08T11:04:34.500Z,1348
2017-09-08T11:05:34.277Z,1380
2017-09-08T11:06:33.957Z,1436
2017-09-08T11:07:34.487Z,1496
2017-09-08T11:08:34.789Z,1416
2017-09-08T11:09:34.470Z,1552
2017-09-08T11:10:34.878Z,1580
2017-09-08T11:11:33.830Z,1588
2017-09-08T11:12:34.769Z,1636
2017-09-08T11:13:34.764Z,1616
2017-09-08T11:14:33.814Z,1568
2017-09-08T11:15:34.124Z,1596
2017-09-08T11:16:34.439Z,1652
2017-09-08T11:17:34.753Z,1620
2017-09-08T11:18:34.420Z,1600
2017-09-08T11:19:34.202Z,1544
2017-09-08T11:20:34.097Z,1424
2017-09-08T11:21:33.782Z,1352
2017-09-08T11:22:34.086Z,1308
2017-09-08T11:23:34.493Z,1340
2017-09-08T11:24:34.074Z,1348
2017-09-08T11:25:34.383Z,1364
2017-09-08T11:26:33.753Z,1392
2017-09-08T11:27:34.061Z,1404
2017-09-08T11:28:34.055Z,1436
2017-09-08T11:29:34.050Z,1484
2017-09-08T11:30:34.772Z,1564
2017-09-08T11:31:33.726Z,1580
2017-09-08T11:32:34.664Z,1680
2017-09-08T11:33:34.345Z,1724
2017-09-08T11:34:34.345Z,1636
2017-09-08T11:35:34.339Z,1588
2017-09-08T11:36:33.799Z,1608
2017-09-08T11:37:34.324Z,1540
2017-09-08T11:38:34.001Z,1560
2017-09-08T11:39:34.325Z,1592
2017-09-08T11:40:34.411Z,1668
2017-09-08T11:41:33.675Z,1644
2017-09-08T11:42:34.297Z,1640
2017-09-08T11:43:34.289Z,1660
2017-09-08T11:44:34.278Z,1668
2017-09-08T11:45:33.967Z,1684
2017-09-08T11:46:33.961Z,1668
2017-09-08T11:47:33.962Z,1660
2017-09-08T11:48:34.265Z,1672
2017-09-08T11:49:34.256Z,1672
2017-09-08T11:50:33.938Z,1640
2017-09-08T11:51:33.935Z,1640
2017-09-08T11:52:34.248Z,1656
2017-09-08T11:53:34.021Z,1600
2017-09-08T11:54:33.919Z,1584
2017-09-08T11:55:34.231Z,1592
2017-09-08T11:56:33.911Z,1604
2017-09-08T11:57:33.902Z,1660
2017-09-08T11:58:34.625Z,1644
2017-09-08T11:59:33.580Z,1672
2017-09-08T12:00:33.886Z,1696
2017-09-08T12:01:34.193Z,1732
2017-09-08T12:02:33.876Z,1788
2017-09-08T12:03:34.183Z,1816
2017-09-08T12:04:34.180Z,1796
2017-09-08T12:05:33.861Z,1772
2017-09-08T12:06:34.167Z,1804
2017-09-08T12:07:33.849Z,1804
2017-09-08T12:08:34.160Z,1792
2017-09-08T12:09:34.475Z,1828
2017-09-08T12:10:33.835Z,1828
2017-09-08T12:11:34.464Z,1768
2017-09-08T12:12:33.926Z,1772
2017-09-08T12:13:33.820Z,1744
2017-09-08T12:14:34.130Z,1716
2017-09-08T12:15:33.813Z,1740
2017-09-08T12:16:34.117Z,1872
2017-09-08T12:17:34.427Z,1840
2017-09-08T12:18:33.794Z,1808
2017-09-08T12:19:34.418Z,1868
2017-09-08T12:20:34.095Z,1876
2017-09-08T12:21:34.299Z,1920
2017-09-08T12:22:33.777Z,1936
2017-09-08T12:23:34.196Z,1944
2017-09-08T12:24:34.178Z,1908
2017-09-08T12:25:34.072Z,1908
2017-09-08T12:26:34.073Z,1864
2017-09-08T12:27:34.063Z,1860
2017-09-08T12:28:34.373Z,1860
2017-09-08T12:29:33.838Z,1892
2017-09-08T12:30:34.051Z,1916
2017-09-08T12:31:34.043Z,1944
2017-09-08T12:32:33.720Z,1948
2017-09-08T12:33:33.719Z,1916
2017-09-08T12:34:34.127Z,1908
2017-09-08T12:35:33.707Z,1932
2017-09-08T12:36:33.392Z,1920
2017-09-08T12:37:34.423Z,1916
2017-09-08T12:38:34.009Z,1892
2017-09-08T12:39:33.692Z,1976
2017-09-08T12:40:33.993Z,1996
2017-09-08T12:41:33.679Z,2008
2017-09-08T12:42:34.308Z,2024
2017-09-08T12:43:33.677Z,2028
2017-09-08T12:44:33.667Z,2080
2017-09-08T12:45:33.978Z,2104
2017-09-08T12:46:33.753Z,2132
2017-09-08T12:47:34.073Z,2188
2017-09-08T12:48:33.956Z,2140
2017-09-08T12:49:33.955Z,2136
2017-09-08T12:50:34.257Z,2152
2017-09-08T12:51:33.944Z,2204
2017-09-08T12:52:33.940Z,2176
2017-09-08T12:53:34.239Z,2196
2017-09-08T12:54:33.933Z,2256
2017-09-08T12:55:34.232Z,2308
2017-09-08T12:56:33.919Z,2236
2017-09-08T12:57:33.593Z,2304
2017-09-08T12:58:33.798Z,2216
2017-09-08T12:59:33.590Z,2128
2017-09-08T13:00:33.895Z,2172
2017-09-08T13:01:33.892Z,2192
2017-09-08T13:02:33.573Z,2168
2017-09-08T13:03:33.881Z,2156
2017-09-08T13:04:34.292Z,2156
2017-09-08T13:05:33.871Z,2184
2017-09-08T13:06:33.870Z,2240
2017-09-08T13:07:33.961Z,2252
2017-09-08T13:08:33.855Z,2296
2017-09-08T13:09:33.947Z,2348
2017-09-08T13:10:33.534Z,2332
2017-09-08T13:11:33.851Z,2344
2017-09-08T13:12:33.310Z,2352
2017-09-08T13:13:33.829Z,2436
2017-09-08T13:14:33.930Z,2496
2017-09-08T13:15:33.508Z,2452
2017-09-08T13:16:33.501Z,2380
2017-09-08T13:17:33.184Z,2412
2017-09-08T13:18:34.120Z,2312
2017-09-08T13:19:33.801Z,2348
2017-09-08T13:20:34.108Z,2332
2017-09-08T13:21:33.478Z,2404
2017-09-08T13:22:33.788Z,2424
2017-09-08T13:23:33.785Z,2428
2017-09-08T13:24:33.465Z,2472
2017-09-08T13:25:34.189Z,2508
2017-09-08T13:26:33.456Z,2544
2017-09-08T13:27:33.486Z,2576
2017-09-08T13:28:33.446Z,2632
2017-09-08T13:29:33.440Z,2564
2017-09-08T13:30:33.745Z,2716
2017-09-08T13:31:33.529Z,2612
2017-09-08T13:32:33.427Z,2604
2017-09-08T13:33:33.941Z,2664
2017-09-08T13:34:33.519Z,2744
2017-09-08T13:35:33.411Z,2636
2017-09-08T13:36:33.723Z,2672
2017-09-08T13:37:33.816Z,2656
2017-09-08T13:38:33.396Z,2580
2017-09-08T13:39:33.388Z,2512
2017-09-08T13:40:33.387Z,2412
2017-09-08T13:41:33.382Z,2444
2017-09-08T13:42:33.690Z,2532
2017-09-08T13:43:33.472Z,2628
2017-09-08T13:44:33.053Z,2544
2017-09-08T13:45:33.677Z,2608
2017-09-08T13:46:33.042Z,2596
2017-09-08T13:47:33.986Z,2608
2017-09-08T13:48:33.667Z,2596
2017-09-08T13:49:33.345Z,2532
2017-09-08T13:50:33.653Z,2596
2017-09-08T13:51:34.062Z,2588
2017-09-08T13:52:33.954Z,2648
2017-09-08T13:53:33.638Z,2744
2017-09-08T13:54:33.639Z,2736
2017-09-08T13:55:33.312Z,2768
2017-09-08T13:56:33.412Z,2744
2017-09-08T13:57:33.345Z,2708
2017-09-08T13:58:33.928Z,2708
2017-09-08T13:59:33.924Z,2736